createdAt,value
2023-05-13T00:01:27.542Z,6.68
2023-05-13T00:03:54.256Z,6.60
2023-05-13T00:06:21.611Z,6.22
2023-05-13T00:08:48.370Z,4.60
2023-05-13T00:11:15.039Z,4.88
2023-05-13T00:13:41.693Z,7.80
2023-05-13T00:16:08.416Z,5.38
2023-05-13T00:18:35.431Z,6.00
2023-05-13T00:21:02.079Z,5.13
2023-05-13T00:23:28.755Z,7.40
2023-05-13T00:25:55.586Z,7.05
2023-05-13T00:28:22.306Z,5.40
2023-05-13T00:30:49.213Z,8.38
2023-05-13T00:33:16.123Z,6.13
2023-05-13T00:35:42.962Z,6.95
2023-05-13T00:38:09.949Z,5.70
2023-05-13T00:40:39.801Z,6.22
2023-05-13T00:43:06.459Z,5.70
2023-05-13T00:45:33.218Z,5.72
2023-05-13T00:48:00.827Z,5.40
2023-05-13T00:50:27.503Z,6.30
2023-05-13T00:52:57.121Z,5.07
2023-05-13T00:55:23.901Z,5.53
2023-05-13T00:57:50.584Z,6.70
2023-05-13T01:00:17.697Z,4.82
2023-05-13T01:03:06.073Z,5.45
2023-05-13T01:05:54.437Z,7.07
2023-05-13T01:08:36.841Z,4.43
2023-05-13T01:11:15.989Z,5.53
2023-05-13T01:13:47.012Z,7.95
2023-05-13T01:16:20.915Z,7.28
2023-05-13T01:18:56.724Z,9.35
2023-05-13T01:21:27.635Z,8.68
2023-05-13T01:23:55.492Z,9.70
2023-05-13T01:26:24.235Z,7.13
2023-05-13T01:28:51.088Z,8.57
2023-05-13T01:31:20.289Z,6.82
2023-05-13T01:33:47.570Z,6.85
2023-05-13T01:36:14.395Z,6.20
2023-05-13T01:38:41.950Z,7.70
2023-05-13T01:41:08.677Z,5.95
2023-05-13T01:43:35.376Z,7.80
2023-05-13T01:46:02.366Z,7.43
2023-05-13T01:48:29.042Z,7.28
2023-05-13T01:50:56.311Z,6.43
2023-05-13T01:53:23.273Z,6.82
2023-05-13T01:55:50.531Z,8.50
2023-05-13T01:58:17.171Z,10.07
2023-05-13T02:00:43.831Z,8.82
2023-05-13T02:03:10.662Z,8.68
2023-05-13T02:05:37.458Z,9.60
2023-05-13T02:08:04.439Z,9.35
2023-05-13T02:10:31.173Z,7.40
2023-05-13T02:12:57.817Z,8.77
2023-05-13T02:15:24.626Z,8.98
2023-05-13T02:17:51.485Z,7.20
2023-05-13T02:20:18.276Z,9.07
2023-05-13T02:22:44.955Z,6.85
2023-05-13T02:25:11.659Z,9.75
2023-05-13T02:27:38.390Z,9.65
2023-05-13T02:30:06.453Z,9.90
2023-05-13T02:32:33.174Z,5.97
2023-05-13T02:34:59.832Z,9.35
2023-05-13T02:37:26.766Z,8.27
2023-05-13T02:39:53.491Z,8.52
2023-05-13T02:42:21.058Z,9.75
2023-05-13T02:44:48.502Z,9.50
2023-05-13T02:47:15.352Z,8.75
2023-05-13T02:49:42.092Z,9.27
2023-05-13T02:52:08.761Z,11.43
2023-05-13T02:54:35.502Z,9.10
2023-05-13T02:57:02.150Z,14.20
2023-05-13T02:59:28.905Z,12.38
2023-05-13T03:01:55.581Z,9.48
2023-05-13T03:04:22.250Z,10.10
2023-05-13T03:06:49.088Z,7.97
2023-05-13T03:09:15.885Z,8.15
2023-05-13T03:11:42.547Z,8.77
2023-05-13T03:14:09.184Z,9.20
2023-05-13T03:16:35.954Z,9.13
2023-05-13T03:19:02.762Z,7.57
2023-05-13T03:21:29.409Z,7.13
2023-05-13T03:23:56.050Z,5.88
2023-05-13T03:26:22.719Z,7.63
2023-05-13T03:28:49.432Z,8.20
2023-05-13T03:31:16.230Z,9.25
2023-05-13T03:33:43.299Z,9.73
2023-05-13T03:36:09.979Z,8.45
2023-05-13T03:38:36.650Z,10.35
2023-05-13T03:41:03.336Z,7.60
2023-05-13T03:43:30.007Z,9.18
2023-05-13T03:45:56.650Z,10.45
2023-05-13T03:48:23.301Z,8.57
2023-05-13T03:50:50.045Z,7.35
2023-05-13T03:53:17.358Z,10.27
2023-05-13T03:55:44.007Z,8.40
2023-05-13T03:58:14.921Z,9.68
2023-05-13T04:00:43.121Z,8.52
2023-05-13T04:03:10.544Z,9.98
2023-05-13T04:05:37.378Z,9.32
2023-05-13T04:08:04.270Z,7.75
2023-05-13T04:10:30.991Z,9.55
2023-05-13T04:12:57.699Z,6.53
2023-05-13T04:15:24.440Z,6.53
2023-05-13T04:17:52.500Z,6.95
2023-05-13T04:20:19.734Z,10.02
2023-05-13T04:22:48.548Z,8.95
2023-05-13T04:25:15.465Z,8.02
2023-05-13T04:27:42.272Z,9.65
2023-05-13T04:30:09.599Z,9.70
2023-05-13T04:32:36.431Z,10.48
2023-05-13T04:35:03.158Z,6.95
2023-05-13T04:37:29.937Z,7.20
2023-05-13T04:39:56.595Z,8.52
2023-05-13T04:42:23.321Z,7.32
2023-05-13T04:44:50.051Z,8.98
2023-05-13T04:47:16.731Z,5.75
2023-05-13T04:49:43.397Z,4.88
2023-05-13T04:52:12.954Z,6.50
2023-05-13T04:54:39.966Z,6.85
2023-05-13T04:57:06.926Z,8.80
2023-05-13T04:59:34.089Z,7.68
2023-05-13T05:02:00.999Z,5.38
2023-05-13T05:04:27.896Z,7.55
2023-05-13T05:06:54.593Z,5.07
2023-05-13T05:09:21.260Z,6.82
2023-05-13T05:11:50.285Z,7.70
2023-05-13T05:14:17.525Z,6.03
2023-05-13T05:16:44.310Z,8.43
2023-05-13T05:19:11.009Z,6.65
2023-05-13T05:21:38.161Z,9.13
2023-05-13T05:24:06.045Z,8.52
2023-05-13T05:26:32.764Z,5.57
2023-05-13T05:28:59.424Z,5.55
2023-05-13T05:31:27.635Z,7.10
2023-05-13T05:33:56.283Z,9.75
2023-05-13T05:36:23.032Z,9.70
2023-05-13T05:38:49.703Z,15.35
2023-05-13T05:41:16.531Z,13.15
2023-05-13T05:43:43.204Z,10.75
2023-05-13T05:46:09.931Z,9.45
2023-05-13T05:48:36.753Z,13.57
2023-05-13T05:51:03.647Z,12.45
2023-05-13T05:53:30.365Z,13.73
2023-05-13T05:55:57.041Z,6.60
2023-05-13T05:58:23.826Z,9.80
2023-05-13T06:00:50.684Z,12.00
2023-05-13T06:03:17.663Z,7.03
2023-05-13T06:05:44.962Z,6.63
2023-05-13T06:08:11.634Z,7.97
2023-05-13T06:10:38.629Z,8.05
2023-05-13T06:13:05.531Z,9.30
2023-05-13T06:15:32.262Z,8.40
2023-05-13T06:17:59.011Z,9.65
2023-05-13T06:20:25.767Z,7.75
2023-05-13T06:22:52.406Z,7.40
2023-05-13T06:25:19.174Z,6.63
2023-05-13T06:27:45.933Z,7.30
2023-05-13T06:30:12.809Z,6.28
2023-05-13T06:32:42.842Z,6.40
2023-05-13T06:35:14.373Z,5.68
2023-05-13T06:37:41.072Z,6.78
2023-05-13T06:40:08.364Z,6.38
2023-05-13T06:42:40.018Z,5.97
2023-05-13T06:45:08.352Z,4.38
2023-05-13T06:47:35.784Z,5.78
2023-05-13T06:50:03.543Z,5.65
2023-05-13T06:52:31.508Z,5.47
2023-05-13T06:54:59.866Z,7.88
2023-05-13T06:57:38.760Z,5.93
2023-05-13T07:00:09.229Z,7.03
2023-05-13T07:02:35.938Z,5.85
2023-05-13T07:05:03.117Z,7.63
2023-05-13T07:07:29.852Z,5.28
2023-05-13T07:09:57.027Z,4.43
2023-05-13T07:12:23.865Z,5.50
2023-05-13T07:14:50.839Z,4.90
2023-05-13T07:17:18.009Z,4.63
2023-05-13T07:19:44.793Z,6.88
2023-05-13T07:22:11.512Z,4.68
2023-05-13T07:24:39.047Z,5.85
2023-05-13T07:27:05.875Z,5.00
2023-05-13T07:29:34.065Z,4.00
2023-05-13T07:32:07.149Z,4.38
2023-05-13T07:34:33.819Z,4.53
2023-05-13T07:37:00.566Z,5.88
2023-05-13T07:39:27.795Z,4.05
2023-05-13T07:41:54.977Z,4.20
2023-05-13T07:44:22.084Z,4.22
2023-05-13T07:46:49.414Z,4.47
2023-05-13T07:49:16.306Z,4.20
2023-05-13T07:51:42.997Z,3.65
2023-05-13T07:54:10.265Z,4.13
2023-05-13T07:56:38.124Z,4.15
2023-05-13T07:59:05.113Z,4.00
2023-05-13T08:01:31.931Z,5.53
2023-05-13T08:03:58.902Z,5.40
2023-05-13T08:06:25.992Z,5.35
2023-05-13T08:08:52.659Z,4.60
2023-05-13T08:11:19.404Z,3.80
2023-05-13T08:13:46.058Z,4.63
2023-05-13T08:16:12.806Z,4.85
2023-05-13T08:18:39.643Z,4.03
2023-05-13T08:21:06.508Z,2.83
2023-05-13T08:23:44.206Z,3.67
2023-05-13T08:26:12.407Z,3.40
2023-05-13T08:28:39.172Z,3.53
2023-05-13T08:31:05.922Z,3.30
2023-05-13T08:33:33.120Z,3.30
2023-05-13T08:36:00.816Z,3.30
2023-05-13T08:38:27.757Z,2.97
2023-05-13T08:40:54.801Z,4.45
2023-05-13T08:43:24.064Z,4.10
2023-05-13T08:45:53.281Z,3.13
2023-05-13T08:48:20.314Z,3.63
2023-05-13T08:50:47.781Z,3.42
2023-05-13T08:53:17.111Z,4.07
2023-05-13T08:55:43.829Z,3.27
2023-05-13T08:58:10.607Z,3.03
2023-05-13T09:00:37.759Z,3.90
2023-05-13T09:03:04.702Z,2.53
2023-05-13T09:05:32.048Z,2.72
2023-05-13T09:08:00.458Z,2.10
2023-05-13T09:10:27.878Z,3.55
2023-05-13T09:12:55.566Z,2.65
2023-05-13T09:15:26.792Z,2.80
2023-05-13T09:17:59.874Z,5.28
2023-05-13T09:20:27.128Z,3.60
2023-05-13T09:23:00.099Z,3.22
2023-05-13T09:25:28.070Z,2.58
2023-05-13T09:27:59.786Z,3.50
2023-05-13T09:30:28.184Z,3.53
2023-05-13T09:33:20.199Z,5.68
2023-05-13T09:35:53.864Z,3.33
2023-05-13T09:38:22.292Z,3.60
2023-05-13T09:40:57.430Z,3.58
2023-05-13T09:43:26.573Z,2.47
2023-05-13T09:45:57.686Z,4.72
2023-05-13T09:48:29.090Z,4.30
2023-05-13T09:50:58.140Z,2.95
2023-05-13T09:53:26.451Z,2.85
2023-05-13T09:55:55.709Z,4.32
2023-05-13T09:58:24.627Z,4.38
2023-05-13T10:00:52.336Z,2.83
2023-05-13T10:03:19.282Z,3.88
2023-05-13T10:05:46.254Z,6.40
2023-05-13T10:08:14.833Z,4.50
2023-05-13T10:10:45.855Z,5.18
2023-05-13T10:13:18.879Z,4.78
2023-05-13T10:15:55.483Z,4.18
2023-05-13T10:18:23.992Z,4.10
2023-05-13T10:20:53.603Z,6.55
2023-05-13T10:23:22.505Z,4.28
2023-05-13T10:25:50.570Z,2.70
2023-05-13T10:28:17.387Z,5.85
2023-05-13T10:30:45.053Z,3.50
2023-05-13T10:33:12.116Z,3.20
2023-05-13T10:35:43.423Z,5.03
2023-05-13T10:38:16.822Z,3.63
2023-05-13T10:41:05.082Z,4.22
2023-05-13T10:43:34.194Z,3.45
2023-05-13T10:46:04.316Z,4.80
2023-05-13T10:48:48.647Z,4.03
2023-05-13T10:51:17.278Z,5.05
2023-05-13T10:53:52.699Z,4.28
2023-05-13T10:56:28.316Z,5.25
2023-05-13T10:59:02.517Z,6.20
2023-05-13T11:01:43.564Z,2.80
2023-05-13T11:04:17.357Z,3.38
2023-05-13T11:06:48.662Z,2.35
2023-05-13T11:09:29.842Z,3.78
2023-05-13T11:12:00.526Z,4.32
2023-05-13T11:17:00.547Z,8.30
2023-05-13T11:19:37.380Z,3.35
2023-05-13T11:22:21.937Z,3.60
2023-05-13T11:25:17.682Z,5.20
2023-05-13T11:27:44.486Z,3.95
2023-05-13T11:30:26.363Z,3.10
2023-05-13T11:33:00.287Z,4.47
2023-05-13T11:35:31.789Z,3.45
2023-05-13T11:38:03.205Z,4.03
2023-05-13T11:40:32.897Z,3.35
2023-05-13T11:43:00.336Z,3.70
2023-05-13T11:45:28.126Z,2.90
2023-05-13T11:47:56.059Z,3.88
2023-05-13T11:50:30.415Z,4.95
2023-05-13T11:52:59.174Z,3.42
2023-05-13T11:55:31.139Z,2.78
2023-05-13T11:57:59.489Z,3.45
2023-05-13T12:00:29.758Z,15.73
2023-05-13T12:02:57.367Z,7.63
2023-05-13T12:05:25.316Z,4.90
2023-05-13T12:07:56.109Z,5.32
2023-05-13T12:10:23.687Z,6.03
2023-05-13T12:12:51.730Z,5.68
2023-05-13T12:15:20.085Z,5.00
2023-05-13T12:17:48.448Z,3.55
2023-05-13T12:20:19.496Z,4.28
2023-05-13T12:22:46.137Z,4.82
2023-05-13T12:25:43.827Z,4.10
2023-05-13T12:28:18.994Z,5.05
2023-05-13T12:31:05.763Z,4.80
2023-05-13T12:33:40.566Z,4.28
2023-05-13T12:36:20.251Z,5.43
2023-05-13T12:39:07.042Z,3.30
2023-05-13T12:41:38.554Z,4.95
2023-05-13T12:44:10.133Z,6.55
2023-05-13T12:46:37.582Z,5.03
2023-05-13T12:49:06.026Z,5.20
2023-05-13T12:51:34.002Z,3.80
2023-05-13T12:54:00.871Z,4.15
2023-05-13T12:56:27.742Z,6.95
2023-05-13T12:58:54.810Z,3.05
2023-05-13T13:01:21.956Z,3.85
2023-05-13T13:03:49.028Z,6.88
2023-05-13T13:06:16.191Z,4.40
2023-05-13T13:08:43.098Z,7.15
2023-05-13T13:11:10.480Z,8.77
2023-05-13T13:13:39.102Z,4.75
2023-05-13T13:16:06.665Z,4.43
2023-05-13T13:18:33.456Z,3.35
2023-05-13T13:21:00.132Z,4.22
2023-05-13T13:23:26.849Z,3.60
2023-05-13T13:25:53.736Z,3.85
2023-05-13T13:28:20.380Z,3.53
2023-05-13T13:30:47.417Z,4.00
2023-05-13T13:33:15.642Z,3.97
2023-05-13T13:35:46.996Z,4.60
2023-05-13T13:38:14.273Z,5.80
2023-05-13T13:40:41.243Z,5.80
2023-05-13T13:43:08.748Z,3.95
2023-05-13T13:45:36.248Z,7.40
2023-05-13T13:48:03.090Z,2.90
2023-05-13T13:50:29.884Z,6.70
2023-05-13T13:52:56.630Z,7.93
2023-05-13T13:55:24.132Z,5.05
2023-05-13T13:57:51.884Z,4.35
2023-05-13T14:00:19.202Z,6.50
2023-05-13T14:02:46.256Z,5.57
2023-05-13T14:05:13.473Z,4.40
2023-05-13T14:07:40.570Z,5.00
2023-05-13T14:10:08.222Z,5.57
2023-05-13T14:12:38.006Z,6.75
2023-05-13T14:15:05.386Z,6.13
2023-05-13T14:17:32.951Z,6.53
2023-05-13T14:19:59.654Z,3.60
2023-05-13T14:22:26.349Z,4.40
2023-05-13T14:24:53.194Z,4.43
2023-05-13T14:27:20.895Z,4.15
2023-05-13T14:29:48.574Z,2.78
2023-05-13T14:32:15.661Z,4.00
2023-05-13T14:34:42.753Z,5.13
2023-05-13T14:37:09.442Z,4.28
2023-05-13T14:39:36.283Z,3.58
2023-05-13T14:42:04.450Z,7.70
2023-05-13T14:44:32.101Z,6.43
2023-05-13T14:46:59.082Z,4.80
2023-05-13T14:49:25.771Z,4.40
2023-05-13T14:51:52.639Z,5.30
2023-05-13T14:54:19.345Z,5.10
2023-05-13T14:56:46.253Z,5.65
2023-05-13T14:59:13.149Z,6.03
2023-05-13T15:01:39.920Z,8.45
2023-05-13T15:04:06.614Z,14.27
2023-05-13T15:06:33.920Z,8.65
2023-05-13T15:09:00.687Z,8.63
2023-05-13T15:11:30.624Z,22.98
2023-05-13T15:13:57.309Z,16.60
2023-05-13T15:16:24.031Z,20.08
2023-05-13T15:18:50.841Z,11.40
2023-05-13T15:21:18.048Z,14.50
2023-05-13T15:23:44.809Z,9.57
2023-05-13T15:26:11.611Z,6.95
2023-05-13T15:28:38.289Z,11.80
2023-05-13T15:31:06.302Z,7.93
2023-05-13T15:33:33.453Z,7.22
2023-05-13T15:36:01.093Z,9.98
2023-05-13T15:38:28.153Z,6.88
2023-05-13T15:40:54.870Z,7.50
2023-05-13T15:43:21.574Z,7.85
2023-05-13T15:45:50.054Z,6.30
2023-05-13T15:48:17.665Z,6.82
2023-05-13T15:50:44.614Z,7.85
2023-05-13T15:53:11.524Z,8.65
2023-05-13T15:55:39.487Z,8.65
2023-05-13T15:58:06.940Z,6.82
2023-05-13T16:00:33.925Z,8.02
2023-05-13T16:03:00.749Z,8.02
2023-05-13T16:05:27.427Z,5.63
2023-05-13T16:07:54.936Z,8.50
2023-05-13T16:10:21.934Z,6.32
2023-05-13T16:12:48.906Z,5.97
2023-05-13T16:15:15.700Z,5.63
2023-05-13T16:17:42.365Z,7.97
2023-05-13T16:20:11.534Z,8.90
2023-05-13T16:22:39.138Z,6.10
2023-05-13T16:25:08.137Z,6.40
2023-05-13T16:27:36.175Z,6.30
2023-05-13T16:30:04.299Z,7.13
2023-05-13T16:32:31.075Z,8.75
2023-05-13T16:34:58.121Z,8.68
2023-05-13T16:37:24.903Z,10.10
2023-05-13T16:39:51.563Z,8.77
2023-05-13T16:42:19.673Z,11.05
2023-05-13T16:44:47.302Z,9.73
2023-05-13T16:47:14.405Z,10.20
2023-05-13T16:49:41.073Z,11.57
2023-05-13T16:52:07.836Z,12.70
2023-05-13T16:54:34.591Z,14.07
2023-05-13T16:57:01.326Z,14.90
2023-05-13T16:59:28.417Z,10.85
2023-05-13T17:01:55.147Z,9.57
2023-05-13T17:04:21.816Z,12.02
2023-05-13T17:06:48.543Z,10.73
2023-05-13T17:09:16.106Z,11.10
2023-05-13T17:11:42.828Z,9.32
2023-05-13T17:14:09.710Z,11.73
2023-05-13T17:16:36.490Z,8.43
2023-05-13T17:19:03.386Z,8.27
2023-05-13T17:21:30.229Z,6.53
2023-05-13T17:23:56.899Z,11.77
2023-05-13T17:26:23.592Z,7.32
2023-05-13T17:28:50.310Z,8.45
2023-05-13T17:31:17.050Z,7.07
2023-05-13T17:33:43.812Z,9.18
2023-05-13T17:36:11.038Z,5.50
2023-05-13T17:38:38.310Z,8.00
2023-05-13T17:41:05.225Z,5.93
2023-05-13T17:43:31.966Z,6.65
2023-05-13T17:45:58.905Z,6.70
2023-05-13T17:48:26.843Z,7.00
2023-05-13T17:50:53.922Z,7.97
2023-05-13T17:53:21.359Z,11.50
2023-05-13T17:55:48.704Z,22.58
2023-05-13T17:58:16.386Z,13.55
2023-05-13T18:00:43.291Z,14.65
2023-05-13T18:03:10.149Z,15.13
2023-05-13T18:05:37.121Z,15.38
2023-05-13T18:08:03.922Z,15.98
2023-05-13T18:10:30.655Z,13.98
2023-05-13T18:12:57.394Z,18.10
2023-05-13T18:15:24.100Z,12.07
2023-05-13T18:17:51.117Z,14.10
2023-05-13T18:20:18.626Z,14.30
2023-05-13T18:22:45.530Z,12.98
2023-05-13T18:25:12.224Z,13.23
2023-05-13T18:27:38.928Z,13.48
2023-05-13T18:30:07.004Z,14.90
2023-05-13T18:32:33.766Z,13.82
2023-05-13T18:35:00.686Z,13.02
2023-05-13T18:37:27.401Z,15.60
2023-05-13T18:39:54.077Z,15.70
2023-05-13T18:42:21.315Z,14.40
2023-05-13T18:44:47.976Z,18.58
2023-05-13T18:47:14.658Z,14.88
2023-05-13T18:49:41.405Z,13.60
2023-05-13T18:52:08.119Z,11.32
2023-05-13T18:54:35.403Z,14.20
2023-05-13T18:57:02.177Z,15.02
2023-05-13T18:59:29.027Z,13.57
2023-05-13T19:01:56.117Z,15.88
2023-05-13T19:04:23.256Z,17.40
2023-05-13T19:06:50.433Z,22.52
2023-05-13T19:09:17.103Z,16.00
2023-05-13T19:11:44.260Z,16.67
2023-05-13T19:14:10.926Z,15.02
2023-05-13T19:16:37.731Z,14.30
2023-05-13T19:19:04.965Z,17.55
2023-05-13T19:21:31.671Z,16.65
2023-05-13T19:23:58.661Z,15.82
2023-05-13T19:26:25.588Z,27.27
2023-05-13T19:28:52.482Z,29.38
2023-05-13T19:31:19.155Z,31.70
2023-05-13T19:33:46.477Z,22.30
2023-05-13T19:36:13.368Z,18.02
2023-05-13T19:38:40.079Z,21.52
2023-05-13T19:41:06.789Z,31.35
2023-05-13T19:43:33.475Z,29.70
2023-05-13T19:46:00.343Z,29.33
2023-05-13T19:48:29.639Z,28.25
2023-05-13T19:50:57.880Z,25.85
2023-05-13T19:53:24.709Z,25.98
2023-05-13T19:55:51.465Z,25.63
2023-05-13T19:58:18.284Z,28.98
2023-05-13T20:00:45.212Z,25.17
2023-05-13T20:03:12.150Z,21.15
2023-05-13T20:05:41.133Z,21.40
2023-05-13T20:08:07.862Z,26.70
2023-05-13T20:10:36.659Z,28.00
2023-05-13T20:13:04.725Z,30.25
2023-05-13T20:15:32.168Z,23.90
2023-05-13T20:17:59.105Z,26.45
2023-05-13T20:20:25.901Z,25.88
2023-05-13T20:22:52.674Z,22.80
2023-05-13T20:25:19.530Z,18.42
2023-05-13T20:27:46.200Z,19.80
2023-05-13T20:30:13.657Z,20.80
2023-05-13T20:32:40.452Z,20.98
2023-05-13T20:35:08.641Z,15.88
2023-05-13T20:37:35.554Z,18.10
2023-05-13T20:40:02.466Z,14.25
2023-05-13T20:42:29.161Z,15.77
2023-05-13T20:44:56.127Z,14.85
2023-05-13T20:47:22.843Z,17.92
2023-05-13T20:49:49.579Z,19.05
2023-05-13T20:52:16.686Z,16.10
2023-05-13T20:54:43.565Z,13.57
2023-05-13T20:57:10.241Z,17.52
2023-05-13T20:59:37.358Z,13.43
2023-05-13T21:02:04.258Z,17.48
2023-05-13T21:04:31.044Z,19.20
2023-05-13T21:06:57.726Z,18.33
2023-05-13T21:09:24.444Z,19.60
2023-05-13T21:11:51.093Z,19.92
2023-05-13T21:14:17.750Z,22.38
2023-05-13T21:16:44.511Z,19.63
2023-05-13T21:19:20.484Z,18.75
2023-05-13T21:21:47.262Z,15.98
2023-05-13T21:24:18.606Z,20.48
2023-05-13T21:26:49.209Z,16.90
2023-05-13T21:29:17.377Z,17.85
2023-05-13T21:31:46.088Z,16.67
2023-05-13T21:34:13.063Z,18.83
2023-05-13T21:36:39.774Z,19.65
2023-05-13T21:39:07.698Z,13.80
2023-05-13T21:41:34.430Z,18.45
2023-05-13T21:44:01.074Z,10.93
2023-05-13T21:46:27.827Z,10.15
2023-05-13T21:48:54.637Z,7.70
2023-05-13T21:51:21.889Z,9.93
2023-05-13T21:53:48.586Z,8.15
2023-05-13T21:56:15.424Z,7.70
2023-05-13T21:58:42.131Z,9.38
2023-05-13T22:01:08.831Z,12.27
2023-05-13T22:03:35.628Z,12.95
2023-05-13T22:06:02.539Z,13.38
2023-05-13T22:08:30.119Z,12.32
2023-05-13T22:10:56.927Z,15.05
2023-05-13T22:13:25.494Z,10.68
2023-05-13T22:15:52.249Z,10.65
2023-05-13T22:18:19.355Z,9.02
2023-05-13T22:20:46.065Z,8.30
2023-05-13T22:23:12.730Z,10.18
2023-05-13T22:25:39.438Z,9.45
2023-05-13T22:28:06.437Z,6.43
2023-05-13T22:30:33.173Z,6.85
2023-05-13T22:32:59.935Z,10.73
2023-05-13T22:35:28.870Z,10.68
2023-05-13T22:37:55.579Z,13.07
2023-05-13T22:40:22.762Z,12.27
2023-05-13T22:42:49.676Z,11.77
2023-05-13T22:45:16.382Z,10.13
2023-05-13T22:47:43.160Z,13.85
2023-05-13T22:50:12.202Z,10.82
2023-05-13T22:52:39.085Z,13.75
2023-05-13T22:55:06.691Z,16.35
2023-05-13T22:57:33.343Z,14.07
2023-05-13T23:00:00.109Z,15.23
2023-05-13T23:02:26.829Z,17.42
2023-05-13T23:04:53.449Z,13.77
2023-05-13T23:07:20.340Z,14.18
2023-05-13T23:09:47.025Z,12.85
2023-05-13T23:12:13.689Z,12.13
2023-05-13T23:14:40.418Z,11.57
2023-05-13T23:17:07.990Z,13.05
2023-05-13T23:19:34.723Z,14.48
2023-05-13T23:22:07.262Z,13.18
2023-05-13T23:24:33.988Z,12.63
2023-05-13T23:27:00.645Z,15.10
2023-05-13T23:29:27.730Z,13.65
2023-05-13T23:31:55.284Z,13.77
2023-05-13T23:34:22.081Z,10.55
2023-05-13T23:36:48.754Z,15.60
2023-05-13T23:39:15.452Z,13.68
2023-05-13T23:41:42.405Z,15.25
2023-05-13T23:44:09.108Z,17.30
2023-05-13T23:46:35.791Z,14.55
2023-05-13T23:49:02.653Z,15.52
2023-05-13T23:51:29.542Z,15.68
2023-05-13T23:53:56.402Z,14.45
2023-05-13T23:56:23.075Z,15.80
2023-05-13T23:58:49.931Z,16.42
